sensor_id;sensor_type;location;lat;lon;timestamp;P1;durP1;ratioP1;P2;durP2;ratioP2
19221;SDS011;9745;50.828;4.378;2022-11-15T00:02:25;26.33;;;15.70;;
19221;SDS011;9745;50.828;4.378;2022-11-15T00:04:51;24.17;;;15.13;;
19221;SDS011;9745;50.828;4.378;2022-11-15T00:07:17;23.13;;;13.93;;
19221;SDS011;9745;50.828;4.378;2022-11-15T00:09:43;20.50;;;13.77;;
19221;SDS011;9745;50.828;4.378;2022-11-15T00:12:09;22.07;;;14.33;;
19221;SDS011;9745;50.828;4.378;2022-11-15T00:14:35;23.50;;;14.70;;
19221;SDS011;9745;50.828;4.378;2022-11-15T00:17:01;28.20;;;15.57;;
19221;SDS011;9745;50.828;4.378;2022-11-15T00:19:27;24.17;;;15.67;;
19221;SDS011;9745;50.828;4.378;2022-11-15T00:21:53;23.57;;;16.33;;
19221;SDS011;9745;50.828;4.378;2022-11-15T00:24:19;21.13;;;15.37;;
19221;SDS011;9745;50.828;4.378;2022-11-15T00:26:45;27.20;;;16.30;;
19221;SDS011;9745;50.828;4.378;2022-11-15T00:29:11;28.50;;;15.77;;
19221;SDS011;9745;50.828;4.378;2022-11-15T00:31:37;21.83;;;15.93;;
19221;SDS011;9745;50.828;4.378;2022-11-15T00:34:03;26.07;;;15.70;;
19221;SDS011;9745;50.828;4.378;2022-11-15T00:36:32;28.10;;;16.63;;
19221;SDS011;9745;50.828;4.378;2022-11-15T00:38:58;24.03;;;16.20;;
19221;SDS011;9745;50.828;4.378;2022-11-15T00:41:23;26.37;;;16.03;;
19221;SDS011;9745;50.828;4.378;2022-11-15T00:43:49;29.50;;;16.23;;
19221;SDS011;9745;50.828;4.378;2022-11-15T00:46:15;27.20;;;15.67;;
19221;SDS011;9745;50.828;4.378;2022-11-15T00:48:41;24.10;;;15.63;;
19221;SDS011;9745;50.828;4.378;2022-11-15T00:51:07;22.57;;;16.10;;
19221;SDS011;9745;50.828;4.378;2022-11-15T00:53:33;26.20;;;16.83;;
19221;SDS011;9745;50.828;4.378;2022-11-15T00:55:59;26.03;;;17.23;;
19221;SDS011;9745;50.828;4.378;2022-11-15T00:58:25;26.37;;;16.90;;
19221;SDS011;9745;50.828;4.378;2022-11-15T01:00:51;25.07;;;16.63;;
19221;SDS011;9745;50.828;4.378;2022-11-15T01:03:17;28.17;;;18.07;;
19221;SDS011;9745;50.828;4.378;2022-11-15T01:05:43;24.63;;;18.13;;
19221;SDS011;9745;50.828;4.378;2022-11-15T01:08:12;32.30;;;18.80;;
19221;SDS011;9745;50.828;4.378;2022-11-15T01:10:38;30.80;;;18.77;;
19221;SDS011;9745;50.828;4.378;2022-11-15T01:13:04;30.27;;;18.57;;
19221;SDS011;9745;50.828;4.378;2022-11-15T01:15:29;32.80;;;18.90;;
19221;SDS011;9745;50.828;4.378;2022-11-15T01:17:55;31.73;;;19.40;;
19221;SDS011;9745;50.828;4.378;2022-11-15T01:20:21;34.97;;;19.80;;
19221;SDS011;9745;50.828;4.378;2022-11-15T01:22:47;31.40;;;18.90;;
19221;SDS011;9745;50.828;4.378;2022-11-15T01:25:13;31.63;;;19.63;;
19221;SDS011;9745;50.828;4.378;2022-11-15T01:27:39;30.77;;;18.90;;
19221;SDS011;9745;50.828;4.378;2022-11-15T01:30:05;30.90;;;18.57;;
19221;SDS011;9745;50.828;4.378;2022-11-15T01:32:32;30.20;;;19.13;;
19221;SDS011;9745;50.828;4.378;2022-11-15T01:34:58;28.83;;;18.70;;
19221;SDS011;9745;50.828;4.378;2022-11-15T01:37:23;26.40;;;16.43;;
19221;SDS011;9745;50.828;4.378;2022-11-15T01:39:49;24.87;;;16.07;;
19221;SDS011;9745;50.828;4.378;2022-11-15T01:42:15;30.93;;;16.53;;
19221;SDS011;9745;50.828;4.378;2022-11-15T01:44:43;24.53;;;15.63;;
19221;SDS011;9745;50.828;4.378;2022-11-15T01:47:14;25.83;;;16.00;;
19221;SDS011;9745;50.828;4.378;2022-11-15T01:49:52;23.93;;;14.40;;
19221;SDS011;9745;50.828;4.378;2022-11-15T01:52:20;21.03;;;14.03;;
19221;SDS011;9745;50.828;4.378;2022-11-15T01:54:53;20.53;;;12.60;;
19221;SDS011;9745;50.828;4.378;2022-11-15T01:57:19;21.30;;;14.00;;
19221;SDS011;9745;50.828;4.378;2022-11-15T01:59:45;19.77;;;13.27;;
19221;SDS011;9745;50.828;4.378;2022-11-15T02:02:12;22.23;;;13.70;;
19221;SDS011;9745;50.828;4.378;2022-11-15T02:04:42;22.60;;;13.83;;
19221;SDS011;9745;50.828;4.378;2022-11-15T02:07:08;22.30;;;13.93;;
19221;SDS011;9745;50.828;4.378;2022-11-15T02:09:36;18.57;;;12.60;;
19221;SDS011;9745;50.828;4.378;2022-11-15T02:12:02;25.30;;;13.17;;
19221;SDS011;9745;50.828;4.378;2022-11-15T02:14:29;22.73;;;13.63;;
19221;SDS011;9745;50.828;4.378;2022-11-15T02:25:31;21.63;;;13.37;;
19221;SDS011;9745;50.828;4.378;2022-11-15T02:28:06;20.60;;;12.60;;
19221;SDS011;9745;50.828;4.378;2022-11-15T02:30:38;22.40;;;13.33;;
19221;SDS011;9745;50.828;4.378;2022-11-15T02:33:20;22.37;;;14.10;;
19221;SDS011;9745;50.828;4.378;2022-11-15T02:35:58;22.90;;;12.70;;
19221;SDS011;9745;50.828;4.378;2022-11-15T02:38:34;19.93;;;13.23;;
19221;SDS011;9745;50.828;4.378;2022-11-15T02:41:04;25.10;;;13.13;;
19221;SDS011;9745;50.828;4.378;2022-11-15T02:46:33;24.60;;;12.93;;
19221;SDS011;9745;50.828;4.378;2022-11-15T02:49:20;20.97;;;13.23;;
19221;SDS011;9745;50.828;4.378;2022-11-15T02:51:47;26.33;;;14.33;;
19221;SDS011;9745;50.828;4.378;2022-11-15T02:54:15;21.10;;;12.63;;
19221;SDS011;9745;50.828;4.378;2022-11-15T02:56:43;21.93;;;12.27;;
19221;SDS011;9745;50.828;4.378;2022-11-15T02:59:16;26.10;;;12.17;;
19221;SDS011;9745;50.828;4.378;2022-11-15T03:04:28;17.00;;;10.83;;
19221;SDS011;9745;50.828;4.378;2022-11-15T03:07:05;18.17;;;10.63;;
19221;SDS011;9745;50.828;4.378;2022-11-15T03:09:34;18.57;;;10.57;;
19221;SDS011;9745;50.828;4.378;2022-11-15T03:12:04;23.43;;;10.70;;
19221;SDS011;9745;50.828;4.378;2022-11-15T03:14:34;17.83;;;9.80;;
19221;SDS011;9745;50.828;4.378;2022-11-15T03:17:11;15.43;;;9.57;;
19221;SDS011;9745;50.828;4.378;2022-11-15T03:19:44;17.20;;;10.03;;
19221;SDS011;9745;50.828;4.378;2022-11-15T03:22:11;13.77;;;9.60;;
19221;SDS011;9745;50.828;4.378;2022-11-15T03:24:38;17.53;;;10.70;;
19221;SDS011;9745;50.828;4.378;2022-11-15T03:27:05;15.70;;;8.90;;
19221;SDS011;9745;50.828;4.378;2022-11-15T03:29:32;16.10;;;9.03;;
19221;SDS011;9745;50.828;4.378;2022-11-15T03:32:01;13.37;;;8.67;;
19221;SDS011;9745;50.828;4.378;2022-11-15T03:37:01;12.80;;;7.93;;
19221;SDS011;9745;50.828;4.378;2022-11-15T03:39:27;17.63;;;8.57;;
19221;SDS011;9745;50.828;4.378;2022-11-15T03:44:31;15.77;;;7.17;;
19221;SDS011;9745;50.828;4.378;2022-11-15T03:47:18;12.23;;;6.77;;
19221;SDS011;9745;50.828;4.378;2022-11-15T03:49:46;16.37;;;7.20;;
19221;SDS011;9745;50.828;4.378;2022-11-15T03:52:17;11.00;;;6.17;;
19221;SDS011;9745;50.828;4.378;2022-11-15T03:54:54;11.33;;;6.60;;
19221;SDS011;9745;50.828;4.378;2022-11-15T03:57:20;9.23;;;6.10;;
19221;SDS011;9745;50.828;4.378;2022-11-15T03:59:46;14.03;;;6.80;;
19221;SDS011;9745;50.828;4.378;2022-11-15T04:02:12;13.17;;;6.60;;
19221;SDS011;9745;50.828;4.378;2022-11-15T04:04:39;9.43;;;6.40;;
19221;SDS011;9745;50.828;4.378;2022-11-15T04:07:05;10.20;;;5.80;;
19221;SDS011;9745;50.828;4.378;2022-11-15T04:09:31;9.27;;;6.17;;
19221;SDS011;9745;50.828;4.378;2022-11-15T04:11:57;9.47;;;5.77;;
19221;SDS011;9745;50.828;4.378;2022-11-15T04:14:23;9.83;;;5.67;;
19221;SDS011;9745;50.828;4.378;2022-11-15T04:16:49;11.23;;;6.20;;
19221;SDS011;9745;50.828;4.378;2022-11-15T04:19:15;8.93;;;5.77;;
19221;SDS011;9745;50.828;4.378;2022-11-15T04:21:59;11.90;;;6.57;;
19221;SDS011;9745;50.828;4.378;2022-11-15T04:24:44;12.10;;;6.23;;
19221;SDS011;9745;50.828;4.378;2022-11-15T04:27:10;10.93;;;6.17;;
19221;SDS011;9745;50.828;4.378;2022-11-15T04:29:40;10.83;;;6.30;;
19221;SDS011;9745;50.828;4.378;2022-11-15T04:32:06;8.37;;;5.13;;
19221;SDS011;9745;50.828;4.378;2022-11-15T04:34:32;10.73;;;5.27;;
19221;SDS011;9745;50.828;4.378;2022-11-15T04:36:59;9.03;;;5.53;;
19221;SDS011;9745;50.828;4.378;2022-11-15T04:39:37;10.40;;;6.07;;
19221;SDS011;9745;50.828;4.378;2022-11-15T04:42:03;10.17;;;5.47;;
19221;SDS011;9745;50.828;4.378;2022-11-15T04:44:29;9.90;;;5.80;;
19221;SDS011;9745;50.828;4.378;2022-11-15T04:46:55;11.07;;;5.93;;
19221;SDS011;9745;50.828;4.378;2022-11-15T04:49:21;11.03;;;6.07;;
19221;SDS011;9745;50.828;4.378;2022-11-15T04:51:47;11.17;;;5.97;;
19221;SDS011;9745;50.828;4.378;2022-11-15T04:54:13;11.60;;;6.33;;
19221;SDS011;9745;50.828;4.378;2022-11-15T04:56:39;10.77;;;5.50;;
19221;SDS011;9745;50.828;4.378;2022-11-15T04:59:05;11.23;;;5.60;;
19221;SDS011;9745;50.828;4.378;2022-11-15T05:01:31;8.27;;;4.67;;
19221;SDS011;9745;50.828;4.378;2022-11-15T05:03:57;9.47;;;5.10;;
19221;SDS011;9745;50.828;4.378;2022-11-15T05:06:42;7.73;;;4.90;;
19221;SDS011;9745;50.828;4.378;2022-11-15T05:09:08;10.33;;;4.40;;
19221;SDS011;9745;50.828;4.378;2022-11-15T05:11:34;16.00;;;4.93;;
19221;SDS011;9745;50.828;4.378;2022-11-15T05:14:00;11.80;;;5.07;;
19221;SDS011;9745;50.828;4.378;2022-11-15T05:16:26;10.60;;;4.37;;
19221;SDS011;9745;50.828;4.378;2022-11-15T05:18:52;8.77;;;5.20;;
19221;SDS011;9745;50.828;4.378;2022-11-15T05:21:19;11.03;;;4.60;;
19221;SDS011;9745;50.828;4.378;2022-11-15T05:23:45;7.80;;;4.13;;
19221;SDS011;9745;50.828;4.378;2022-11-15T05:26:11;11.13;;;3.83;;
19221;SDS011;9745;50.828;4.378;2022-11-15T05:28:37;12.17;;;4.77;;
19221;SDS011;9745;50.828;4.378;2022-11-15T05:31:04;6.73;;;4.00;;
19221;SDS011;9745;50.828;4.378;2022-11-15T05:33:31;13.57;;;4.23;;
19221;SDS011;9745;50.828;4.378;2022-11-15T05:36:07;8.90;;;4.43;;
19221;SDS011;9745;50.828;4.378;2022-11-15T05:38:35;9.00;;;4.03;;
19221;SDS011;9745;50.828;4.378;2022-11-15T05:41:01;8.40;;;4.30;;
19221;SDS011;9745;50.828;4.378;2022-11-15T05:43:27;6.97;;;3.57;;
19221;SDS011;9745;50.828;4.378;2022-11-15T05:45:55;8.03;;;3.90;;
19221;SDS011;9745;50.828;4.378;2022-11-15T05:48:22;12.63;;;3.77;;
19221;SDS011;9745;50.828;4.378;2022-11-15T05:50:48;10.73;;;4.47;;
19221;SDS011;9745;50.828;4.378;2022-11-15T05:53:14;7.37;;;3.97;;
19221;SDS011;9745;50.828;4.378;2022-11-15T05:55:41;10.73;;;4.47;;
19221;SDS011;9745;50.828;4.378;2022-11-15T05:58:07;7.83;;;5.10;;
19221;SDS011;9745;50.828;4.378;2022-11-15T06:00:33;13.03;;;4.40;;
19221;SDS011;9745;50.828;4.378;2022-11-15T06:02:59;7.43;;;4.83;;
19221;SDS011;9745;50.828;4.378;2022-11-15T06:05:25;8.87;;;4.83;;
19221;SDS011;9745;50.828;4.378;2022-11-15T06:07:51;7.43;;;3.93;;
19221;SDS011;9745;50.828;4.378;2022-11-15T06:10:17;12.23;;;4.73;;
19221;SDS011;9745;50.828;4.378;2022-11-15T06:12:43;7.77;;;4.33;;
19221;SDS011;9745;50.828;4.378;2022-11-15T06:15:09;16.33;;;4.63;;
19221;SDS011;9745;50.828;4.378;2022-11-15T06:17:35;8.07;;;3.87;;
19221;SDS011;9745;50.828;4.378;2022-11-15T06:20:01;10.00;;;3.60;;
19221;SDS011;9745;50.828;4.378;2022-11-15T06:22:28;8.70;;;4.30;;
19221;SDS011;9745;50.828;4.378;2022-11-15T06:24:54;9.47;;;4.40;;
19221;SDS011;9745;50.828;4.378;2022-11-15T06:27:20;6.17;;;4.00;;
19221;SDS011;9745;50.828;4.378;2022-11-15T06:29:46;6.90;;;3.57;;
19221;SDS011;9745;50.828;4.378;2022-11-15T06:32:12;7.57;;;4.20;;
19221;SDS011;9745;50.828;4.378;2022-11-15T06:34:38;19.33;;;5.40;;
19221;SDS011;9745;50.828;4.378;2022-11-15T06:37:04;10.03;;;3.83;;
19221;SDS011;9745;50.828;4.378;2022-11-15T06:39:30;7.53;;;4.20;;
19221;SDS011;9745;50.828;4.378;2022-11-15T06:41:56;13.33;;;3.80;;
19221;SDS011;9745;50.828;4.378;2022-11-15T06:44:22;12.13;;;5.00;;
19221;SDS011;9745;50.828;4.378;2022-11-15T06:46:48;11.80;;;4.47;;
19221;SDS011;9745;50.828;4.378;2022-11-15T06:49:14;8.43;;;4.30;;
19221;SDS011;9745;50.828;4.378;2022-11-15T06:51:40;7.73;;;4.70;;
19221;SDS011;9745;50.828;4.378;2022-11-15T06:54:06;12.13;;;4.50;;
19221;SDS011;9745;50.828;4.378;2022-11-15T06:56:33;9.20;;;4.20;;
19221;SDS011;9745;50.828;4.378;2022-11-15T06:58:59;6.43;;;4.50;;
19221;SDS011;9745;50.828;4.378;2022-11-15T07:01:25;9.57;;;3.90;;
19221;SDS011;9745;50.828;4.378;2022-11-15T07:03:51;9.77;;;4.27;;
19221;SDS011;9745;50.828;4.378;2022-11-15T07:06:16;9.50;;;4.53;;
19221;SDS011;9745;50.828;4.378;2022-11-15T07:08:42;11.37;;;4.80;;
19221;SDS011;9745;50.828;4.378;2022-11-15T07:11:08;15.70;;;4.33;;
19221;SDS011;9745;50.828;4.378;2022-11-15T07:13:35;7.87;;;4.50;;
19221;SDS011;9745;50.828;4.378;2022-11-15T07:16:05;10.23;;;5.30;;
19221;SDS011;9745;50.828;4.378;2022-11-15T07:18:35;11.67;;;4.70;;
19221;SDS011;9745;50.828;4.378;2022-11-15T07:21:02;12.03;;;4.93;;
19221;SDS011;9745;50.828;4.378;2022-11-15T07:23:29;10.57;;;4.90;;
19221;SDS011;9745;50.828;4.378;2022-11-15T07:25:56;11.17;;;4.90;;
19221;SDS011;9745;50.828;4.378;2022-11-15T07:28:23;8.00;;;4.83;;
19221;SDS011;9745;50.828;4.378;2022-11-15T07:30:49;13.10;;;6.30;;
19221;SDS011;9745;50.828;4.378;2022-11-15T07:33:15;15.77;;;5.40;;
19221;SDS011;9745;50.828;4.378;2022-11-15T07:35:41;9.67;;;5.40;;
19221;SDS011;9745;50.828;4.378;2022-11-15T07:38:07;11.90;;;5.70;;
19221;SDS011;9745;50.828;4.378;2022-11-15T07:40:34;8.00;;;5.60;;
19221;SDS011;9745;50.828;4.378;2022-11-15T07:43:03;7.30;;;4.60;;
19221;SDS011;9745;50.828;4.378;2022-11-15T07:45:30;13.63;;;4.73;;
19221;SDS011;9745;50.828;4.378;2022-11-15T07:47:58;8.37;;;4.83;;
19221;SDS011;9745;50.828;4.378;2022-11-15T07:50:24;9.43;;;4.10;;
19221;SDS011;9745;50.828;4.378;2022-11-15T07:52:57;6.70;;;4.17;;
19221;SDS011;9745;50.828;4.378;2022-11-15T07:55:24;8.67;;;4.97;;
19221;SDS011;9745;50.828;4.378;2022-11-15T07:57:50;8.70;;;4.17;;
19221;SDS011;9745;50.828;4.378;2022-11-15T08:00:16;11.63;;;4.30;;
19221;SDS011;9745;50.828;4.378;2022-11-15T08:02:42;6.60;;;3.73;;
19221;SDS011;9745;50.828;4.378;2022-11-15T08:05:08;7.87;;;3.73;;
19221;SDS011;9745;50.828;4.378;2022-11-15T08:07:34;8.23;;;3.57;;
19221;SDS011;9745;50.828;4.378;2022-11-15T08:10:00;8.17;;;3.50;;
19221;SDS011;9745;50.828;4.378;2022-11-15T08:12:28;6.87;;;3.83;;
19221;SDS011;9745;50.828;4.378;2022-11-15T08:14:55;8.87;;;3.40;;
19221;SDS011;9745;50.828;4.378;2022-11-15T08:17:21;8.40;;;3.93;;
19221;SDS011;9745;50.828;4.378;2022-11-15T08:19:47;9.77;;;4.20;;
19221;SDS011;9745;50.828;4.378;2022-11-15T08:22:13;10.00;;;4.10;;
19221;SDS011;9745;50.828;4.378;2022-11-15T08:24:39;5.70;;;3.33;;
19221;SDS011;9745;50.828;4.378;2022-11-15T08:27:05;8.23;;;2.90;;
19221;SDS011;9745;50.828;4.378;2022-11-15T08:29:40;9.03;;;3.23;;
19221;SDS011;9745;50.828;4.378;2022-11-15T08:32:06;9.07;;;3.63;;
19221;SDS011;9745;50.828;4.378;2022-11-15T08:34:32;4.10;;;2.80;;
19221;SDS011;9745;50.828;4.378;2022-11-15T08:36:58;4.30;;;2.50;;
19221;SDS011;9745;50.828;4.378;2022-11-15T08:39:24;4.00;;;2.00;;
19221;SDS011;9745;50.828;4.378;2022-11-15T08:41:50;5.13;;;1.93;;
19221;SDS011;9745;50.828;4.378;2022-11-15T08:44:16;8.57;;;3.27;;
19221;SDS011;9745;50.828;4.378;2022-11-15T08:46:44;7.53;;;2.57;;
19221;SDS011;9745;50.828;4.378;2022-11-15T08:49:10;4.40;;;2.03;;
19221;SDS011;9745;50.828;4.378;2022-11-15T08:51:36;7.93;;;2.00;;
19221;SDS011;9745;50.828;4.378;2022-11-15T08:54:02;6.17;;;2.13;;
19221;SDS011;9745;50.828;4.378;2022-11-15T08:56:28;6.53;;;2.03;;
19221;SDS011;9745;50.828;4.378;2022-11-15T08:58:55;6.13;;;2.00;;
19221;SDS011;9745;50.828;4.378;2022-11-15T09:01:21;7.10;;;1.90;;
19221;SDS011;9745;50.828;4.378;2022-11-15T09:03:47;8.90;;;3.53;;
19221;SDS011;9745;50.828;4.378;2022-11-15T09:06:13;6.20;;;2.33;;
19221;SDS011;9745;50.828;4.378;2022-11-15T09:08:39;6.23;;;2.33;;
19221;SDS011;9745;50.828;4.378;2022-11-15T09:11:06;5.23;;;2.10;;
19221;SDS011;9745;50.828;4.378;2022-11-15T09:13:33;2.87;;;1.70;;
19221;SDS011;9745;50.828;4.378;2022-11-15T09:15:59;5.20;;;1.70;;
19221;SDS011;9745;50.828;4.378;2022-11-15T09:18:26;10.00;;;2.00;;
19221;SDS011;9745;50.828;4.378;2022-11-15T09:20:54;3.73;;;1.93;;
19221;SDS011;9745;50.828;4.378;2022-11-15T09:23:21;9.67;;;1.83;;
19221;SDS011;9745;50.828;4.378;2022-11-15T09:25:47;9.10;;;2.53;;
19221;SDS011;9745;50.828;4.378;2022-11-15T09:28:13;5.87;;;2.07;;
19221;SDS011;9745;50.828;4.378;2022-11-15T09:30:39;8.70;;;1.87;;
19221;SDS011;9745;50.828;4.378;2022-11-15T09:33:06;4.07;;;1.70;;
19221;SDS011;9745;50.828;4.378;2022-11-15T09:35:32;5.00;;;2.33;;
19221;SDS011;9745;50.828;4.378;2022-11-15T09:37:58;5.20;;;1.80;;
19221;SDS011;9745;50.828;4.378;2022-11-15T09:40:24;8.37;;;1.93;;
19221;SDS011;9745;50.828;4.378;2022-11-15T09:43:05;8.97;;;1.97;;
19221;SDS011;9745;50.828;4.378;2022-11-15T09:48:19;6.27;;;2.10;;
19221;SDS011;9745;50.828;4.378;2022-11-15T09:50:48;7.83;;;1.57;;
19221;SDS011;9745;50.828;4.378;2022-11-15T09:53:48;12.77;;;1.73;;
19221;SDS011;9745;50.828;4.378;2022-11-15T09:56:49;6.03;;;1.60;;
19221;SDS011;9745;50.828;4.378;2022-11-15T10:01:36;7.00;;;1.90;;
19221;SDS011;9745;50.828;4.378;2022-11-15T10:04:05;6.93;;;1.60;;
19221;SDS011;9745;50.828;4.378;2022-11-15T10:06:31;8.00;;;1.57;;
19221;SDS011;9745;50.828;4.378;2022-11-15T10:09:04;9.67;;;1.60;;
19221;SDS011;9745;50.828;4.378;2022-11-15T10:11:32;8.20;;;1.80;;
19221;SDS011;9745;50.828;4.378;2022-11-15T10:14:01;6.67;;;1.30;;
19221;SDS011;9745;50.828;4.378;2022-11-15T10:21:54;4.23;;;1.47;;
19221;SDS011;9745;50.828;4.378;2022-11-15T10:24:25;8.77;;;1.37;;
19221;SDS011;9745;50.828;4.378;2022-11-15T10:26:53;10.17;;;1.57;;
19221;SDS011;9745;50.828;4.378;2022-11-15T10:29:19;6.17;;;1.40;;
19221;SDS011;9745;50.828;4.378;2022-11-15T10:31:46;4.47;;;1.47;;
19221;SDS011;9745;50.828;4.378;2022-11-15T10:34:19;9.50;;;1.47;;
19221;SDS011;9745;50.828;4.378;2022-11-15T10:36:46;9.17;;;1.20;;
19221;SDS011;9745;50.828;4.378;2022-11-15T10:39:12;7.17;;;1.77;;
19221;SDS011;9745;50.828;4.378;2022-11-15T10:41:40;3.47;;;1.00;;
19221;SDS011;9745;50.828;4.378;2022-11-15T10:46:33;7.67;;;1.50;;
19221;SDS011;9745;50.828;4.378;2022-11-15T10:49:12;7.53;;;1.27;;
19221;SDS011;9745;50.828;4.378;2022-11-15T10:51:43;8.40;;;1.30;;
19221;SDS011;9745;50.828;4.378;2022-11-15T10:54:10;5.83;;;1.10;;
19221;SDS011;9745;50.828;4.378;2022-11-15T10:56:37;5.90;;;1.33;;
19221;SDS011;9745;50.828;4.378;2022-11-15T10:59:04;6.43;;;1.27;;
19221;SDS011;9745;50.828;4.378;2022-11-15T11:01:30;9.57;;;1.53;;
19221;SDS011;9745;50.828;4.378;2022-11-15T11:04:00;4.17;;;1.03;;
19221;SDS011;9745;50.828;4.378;2022-11-15T11:06:26;5.63;;;1.27;;
19221;SDS011;9745;50.828;4.378;2022-11-15T11:08:54;6.73;;;1.30;;
19221;SDS011;9745;50.828;4.378;2022-11-15T11:11:20;5.80;;;1.23;;
19221;SDS011;9745;50.828;4.378;2022-11-15T11:13:46;9.63;;;1.70;;
19221;SDS011;9745;50.828;4.378;2022-11-15T11:16:19;5.07;;;1.67;;
19221;SDS011;9745;50.828;4.378;2022-11-15T11:21:23;6.80;;;1.60;;
19221;SDS011;9745;50.828;4.378;2022-11-15T11:37:10;2.63;;;1.03;;
19221;SDS011;9745;50.828;4.378;2022-11-15T11:45:02;3.73;;;1.07;;
19221;SDS011;9745;50.828;4.378;2022-11-15T11:47:31;7.13;;;1.00;;
19221;SDS011;9745;50.828;4.378;2022-11-15T11:50:23;12.60;;;2.23;;
19221;SDS011;9745;50.828;4.378;2022-11-15T11:52:56;5.70;;;1.23;;
19221;SDS011;9745;50.828;4.378;2022-11-15T11:55:23;10.30;;;1.53;;
19221;SDS011;9745;50.828;4.378;2022-11-15T11:57:51;6.97;;;1.10;;
19221;SDS011;9745;50.828;4.378;2022-11-15T12:00:20;9.23;;;1.60;;
19221;SDS011;9745;50.828;4.378;2022-11-15T12:03:02;6.57;;;1.20;;
19221;SDS011;9745;50.828;4.378;2022-11-15T12:05:38;3.93;;;0.90;;
19221;SDS011;9745;50.828;4.378;2022-11-15T12:10:52;18.43;;;8.03;;
19221;SDS011;9745;50.828;4.378;2022-11-15T12:13:21;3.80;;;1.23;;
19221;SDS011;9745;50.828;4.378;2022-11-15T12:18:34;3.97;;;0.87;;
19221;SDS011;9745;50.828;4.378;2022-11-15T12:21:07;6.83;;;1.30;;
19221;SDS011;9745;50.828;4.378;2022-11-15T12:23:47;9.60;;;1.20;;
19221;SDS011;9745;50.828;4.378;2022-11-15T12:26:18;4.30;;;1.30;;
19221;SDS011;9745;50.828;4.378;2022-11-15T12:28:49;3.87;;;1.17;;
19221;SDS011;9745;50.828;4.378;2022-11-15T12:31:19;6.57;;;1.43;;
19221;SDS011;9745;50.828;4.378;2022-11-15T12:33:47;6.37;;;1.47;;
19221;SDS011;9745;50.828;4.378;2022-11-15T12:41:37;3.23;;;1.00;;
19221;SDS011;9745;50.828;4.378;2022-11-15T12:44:04;30.37;;;2.70;;
19221;SDS011;9745;50.828;4.378;2022-11-15T12:49:07;5.20;;;1.00;;
19221;SDS011;9745;50.828;4.378;2022-11-15T12:59:47;3.77;;;1.10;;
19221;SDS011;9745;50.828;4.378;2022-11-15T13:02:26;5.80;;;1.50;;
19221;SDS011;9745;50.828;4.378;2022-11-15T13:04:54;8.80;;;1.60;;
19221;SDS011;9745;50.828;4.378;2022-11-15T13:17:36;3.90;;;1.13;;
19221;SDS011;9745;50.828;4.378;2022-11-15T13:22:39;3.80;;;1.00;;
19221;SDS011;9745;50.828;4.378;2022-11-15T13:27:50;5.57;;;1.83;;
19221;SDS011;9745;50.828;4.378;2022-11-15T13:30:20;3.30;;;1.67;;
19221;SDS011;9745;50.828;4.378;2022-11-15T13:32:46;4.70;;;1.03;;
19221;SDS011;9745;50.828;4.378;2022-11-15T13:35:22;3.60;;;1.40;;
19221;SDS011;9745;50.828;4.378;2022-11-15T13:37:49;4.60;;;1.10;;
19221;SDS011;9745;50.828;4.378;2022-11-15T13:42:42;13.03;;;6.93;;
19221;SDS011;9745;50.828;4.378;2022-11-15T13:45:12;4.73;;;1.00;;
19221;SDS011;9745;50.828;4.378;2022-11-15T13:47:38;5.43;;;1.80;;
19221;SDS011;9745;50.828;4.378;2022-11-15T13:50:04;1.60;;;0.90;;
19221;SDS011;9745;50.828;4.378;2022-11-15T13:52:31;2.90;;;1.13;;
19221;SDS011;9745;50.828;4.378;2022-11-15T13:55:03;6.30;;;1.40;;
19221;SDS011;9745;50.828;4.378;2022-11-15T13:57:35;4.00;;;1.40;;
19221;SDS011;9745;50.828;4.378;2022-11-15T14:00:04;2.53;;;1.27;;
19221;SDS011;9745;50.828;4.378;2022-11-15T14:02:35;4.47;;;1.10;;
19221;SDS011;9745;50.828;4.378;2022-11-15T14:05:18;2.73;;;1.10;;
19221;SDS011;9745;50.828;4.378;2022-11-15T14:08:12;2.20;;;1.03;;
19221;SDS011;9745;50.828;4.378;2022-11-15T14:10:47;2.83;;;1.20;;
19221;SDS011;9745;50.828;4.378;2022-11-15T14:13:29;4.77;;;1.13;;
19221;SDS011;9745;50.828;4.378;2022-11-15T14:16:11;8.37;;;4.20;;
19221;SDS011;9745;50.828;4.378;2022-11-15T14:18:39;3.23;;;1.30;;
19221;SDS011;9745;50.828;4.378;2022-11-15T14:21:07;6.33;;;1.60;;
19221;SDS011;9745;50.828;4.378;2022-11-15T14:23:33;3.07;;;1.17;;
19221;SDS011;9745;50.828;4.378;2022-11-15T14:25:59;4.77;;;1.20;;
19221;SDS011;9745;50.828;4.378;2022-11-15T14:30:52;5.53;;;1.43;;
19221;SDS011;9745;50.828;4.378;2022-11-15T14:35:49;7.87;;;2.33;;
19221;SDS011;9745;50.828;4.378;2022-11-15T14:38:15;2.97;;;1.20;;
19221;SDS011;9745;50.828;4.378;2022-11-15T14:40:42;5.73;;;1.20;;
19221;SDS011;9745;50.828;4.378;2022-11-15T14:43:09;4.37;;;1.60;;
19221;SDS011;9745;50.828;4.378;2022-11-15T14:45:36;4.60;;;1.57;;
19221;SDS011;9745;50.828;4.378;2022-11-15T14:48:02;2.30;;;1.20;;
19221;SDS011;9745;50.828;4.378;2022-11-15T14:50:28;4.17;;;1.50;;
19221;SDS011;9745;50.828;4.378;2022-11-15T14:52:54;3.53;;;1.43;;
19221;SDS011;9745;50.828;4.378;2022-11-15T14:55:21;5.53;;;1.70;;
19221;SDS011;9745;50.828;4.378;2022-11-15T14:57:48;3.40;;;1.53;;
19221;SDS011;9745;50.828;4.378;2022-11-15T15:00:14;4.07;;;2.10;;
19221;SDS011;9745;50.828;4.378;2022-11-15T15:02:41;2.63;;;1.60;;
19221;SDS011;9745;50.828;4.378;2022-11-15T15:05:15;4.03;;;1.97;;
19221;SDS011;9745;50.828;4.378;2022-11-15T15:07:41;3.67;;;2.50;;
19221;SDS011;9745;50.828;4.378;2022-11-15T15:10:07;5.53;;;3.20;;
19221;SDS011;9745;50.828;4.378;2022-11-15T15:12:33;8.63;;;3.60;;
19221;SDS011;9745;50.828;4.378;2022-11-15T15:14:59;4.70;;;1.60;;
19221;SDS011;9745;50.828;4.378;2022-11-15T15:17:25;3.20;;;1.30;;
19221;SDS011;9745;50.828;4.378;2022-11-15T15:19:51;3.20;;;1.50;;
19221;SDS011;9745;50.828;4.378;2022-11-15T15:22:18;2.53;;;1.87;;
19221;SDS011;9745;50.828;4.378;2022-11-15T15:24:44;2.23;;;1.33;;
19221;SDS011;9745;50.828;4.378;2022-11-15T15:27:11;5.07;;;1.60;;
19221;SDS011;9745;50.828;4.378;2022-11-15T15:29:38;5.13;;;1.87;;
19221;SDS011;9745;50.828;4.378;2022-11-15T15:32:04;3.33;;;1.83;;
19221;SDS011;9745;50.828;4.378;2022-11-15T15:34:30;3.23;;;1.63;;
19221;SDS011;9745;50.828;4.378;2022-11-15T15:37:06;4.67;;;1.80;;
19221;SDS011;9745;50.828;4.378;2022-11-15T15:39:33;2.87;;;1.80;;
19221;SDS011;9745;50.828;4.378;2022-11-15T15:41:59;3.23;;;1.80;;
19221;SDS011;9745;50.828;4.378;2022-11-15T15:44:25;3.43;;;2.30;;
19221;SDS011;9745;50.828;4.378;2022-11-15T15:46:50;4.87;;;2.57;;
19221;SDS011;9745;50.828;4.378;2022-11-15T15:49:17;6.50;;;2.90;;
19221;SDS011;9745;50.828;4.378;2022-11-15T15:51:43;8.70;;;2.53;;
19221;SDS011;9745;50.828;4.378;2022-11-15T15:54:09;4.30;;;2.43;;
19221;SDS011;9745;50.828;4.378;2022-11-15T15:56:35;3.00;;;1.70;;
19221;SDS011;9745;50.828;4.378;2022-11-15T15:59:01;4.67;;;2.50;;
19221;SDS011;9745;50.828;4.378;2022-11-15T16:01:27;4.47;;;1.93;;
19221;SDS011;9745;50.828;4.378;2022-11-15T16:03:53;5.03;;;2.00;;
19221;SDS011;9745;50.828;4.378;2022-11-15T16:09:17;3.10;;;2.07;;
19221;SDS011;9745;50.828;4.378;2022-11-15T16:12:04;5.23;;;2.13;;
19221;SDS011;9745;50.828;4.378;2022-11-15T16:14:30;6.63;;;2.10;;
19221;SDS011;9745;50.828;4.378;2022-11-15T16:16:56;2.10;;;1.80;;
19221;SDS011;9745;50.828;4.378;2022-11-15T16:19:22;6.30;;;2.30;;
19221;SDS011;9745;50.828;4.378;2022-11-15T16:21:48;4.63;;;2.07;;
19221;SDS011;9745;50.828;4.378;2022-11-15T16:24:16;2.43;;;2.13;;
19221;SDS011;9745;50.828;4.378;2022-11-15T16:26:42;3.80;;;2.00;;
19221;SDS011;9745;50.828;4.378;2022-11-15T16:29:09;3.53;;;1.90;;
19221;SDS011;9745;50.828;4.378;2022-11-15T16:31:35;4.60;;;2.37;;
19221;SDS011;9745;50.828;4.378;2022-11-15T16:34:01;5.10;;;2.37;;
19221;SDS011;9745;50.828;4.378;2022-11-15T16:36:29;3.90;;;2.23;;
19221;SDS011;9745;50.828;4.378;2022-11-15T16:38:55;3.13;;;2.13;;
19221;SDS011;9745;50.828;4.378;2022-11-15T16:41:21;6.43;;;2.63;;